Time;durP1;ratioP1;P1;durP2;ratioP2;P2;SDS_P1;SDS_P2;PMS_P1;PMS_P2;Temp;Humidity;BMP_temperature;BMP_pressure;BME280_temperature;BME280_humidity;BME280_pressure;Samples;Min_cycle;Max_cycle;Signal;HPM_P1;HPM_P2
2022/07/06 00:01:03;;;;;;;6.00;2.33;;;;;;;16.49;100.00;97199.44;5051806;28;20056;-66
2022/07/06 00:03:28;;;;;;;4.18;2.10;;;;;;;16.37;100.00;97194.31;5051155;28;20063;-66
2022/07/06 00:05:54;;;;;;;3.65;2.40;;;;;;;16.23;100.00;97195.06;5049041;28;20029;-66
2022/07/06 00:08:19;;;;;;;3.05;2.00;;;;;;;16.18;100.00;97199.00;5041783;28;20036;-66
2022/07/06 00:10:44;;;;;;;5.13;2.25;;;;;;;16.14;100.00;97198.19;5051358;28;20123;-66
2022/07/06 00:13:10;;;;;;;3.15;1.83;;;;;;;16.13;100.00;97201.34;5051157;28;20029;-65
2022/07/06 00:15:35;;;;;;;4.38;1.95;;;;;;;16.16;100.00;97195.81;5049880;28;20029;-65
2022/07/06 00:18:01;;;;;;;2.83;1.95;;;;;;;16.19;100.00;97191.50;5066367;28;20053;-65
2022/07/06 00:20:26;;;;;;;3.45;1.67;;;;;;;16.20;100.00;97190.31;5049932;28;20033;-66
2022/07/06 00:22:51;;;;;;;2.42;2.05;;;;;;;16.22;100.00;97188.75;5051071;28;20099;-65
2022/07/06 00:25:17;;;;;;;3.60;2.08;;;;;;;16.19;100.00;97191.50;5050946;28;20036;-64
2022/07/06 00:27:42;;;;;;;5.97;1.88;;;;;;;16.17;100.00;97191.91;5049682;28;20040;-66
2022/07/06 00:30:08;;;;;;;4.00;2.10;;;;;;;16.10;100.00;97186.34;5051132;28;20091;-64
2022/07/06 00:32:33;;;;;;;5.72;1.80;;;;;;;16.15;100.00;97179.63;5058326;28;20040;-65
2022/07/06 00:34:59;;;;;;;3.28;1.90;;;;;;;16.10;100.00;97186.34;5051483;28;20085;-64
2022/07/06 00:37:24;;;;;;;3.63;1.88;;;;;;;16.23;100.00;97186.78;5051586;28;20108;-65
2022/07/06 00:39:50;;;;;;;6.10;1.83;;;;;;;16.35;100.00;97191.13;5052066;28;20074;-66
2022/07/06 00:42:15;;;;;;;7.10;2.13;;;;;;;16.54;100.00;97187.19;5050187;28;20033;-64
2022/07/06 00:44:41;;;;;;;2.50;1.85;;;;;;;16.44;100.00;97195.09;5050870;28;20033;-64
2022/07/06 00:47:07;;;;;;;2.72;1.60;;;;;;;16.46;100.00;97193.88;5049604;28;20048;-65
2022/07/06 00:52:17;;;;;;;5.07;1.98;;;;;;;16.15;100.00;97182.41;5050878;28;20080;-64
2022/07/06 00:54:44;;;;;;;4.95;2.00;;;;;;;16.23;100.00;97181.25;5051079;28;20029;-65
2022/07/06 00:57:10;;;;;;;7.45;2.28;;;;;;;16.36;100.00;97176.13;5050565;28;20392;-65
2022/07/06 00:59:36;;;;;;;3.17;1.98;;;;;;;16.41;100.00;97179.28;5051156;28;20052;-65
2022/07/06 01:02:01;;;;;;;7.50;1.95;;;;;;;16.36;100.00;97173.34;5051087;28;20107;-65
2022/07/06 01:04:28;;;;;;;7.25;2.15;;;;;;;16.35;100.00;97169.81;5051011;28;20568;-65
2022/07/06 01:06:54;;;;;;;3.83;2.20;;;;;;;16.20;100.00;97171.75;5055034;28;20390;-64
2022/07/06 01:09:19;;;;;;;4.50;2.25;;;;;;;15.75;100.00;97173.22;5046820;28;20044;-65
2022/07/06 01:11:45;;;;;;;4.35;2.20;;;;;;;15.54;100.00;97176.66;5055416;28;20032;-65
2022/07/06 01:14:13;;;;;;;6.00;2.30;;;;;;;15.51;100.00;97180.19;5054772;28;20436;-66
2022/07/06 01:16:39;;;;;;;6.25;2.25;;;;;;;15.49;100.00;97181.38;5053147;28;20033;-64
2022/07/06 01:19:06;;;;;;;3.13;2.15;;;;;;;15.62;100.00;97170.78;5070862;28;20307;-65
2022/07/06 01:21:31;;;;;;;6.38;2.47;;;;;;;15.73;100.00;97175.56;5055645;28;20067;-67
2022/07/06 01:23:57;;;;;;;6.28;2.83;;;;;;;15.82;100.00;97178.75;5054309;28;20512;-65
2022/07/06 01:26:23;;;;;;;8.52;2.30;;;;;;;15.85;100.00;97175.22;5052729;28;20028;-65
2022/07/06 01:28:51;;;;;;;4.97;2.63;;;;;;;15.91;100.00;97181.94;5054753;28;20037;-65
2022/07/06 01:31:26;;;;;;;5.93;2.40;;;;;;;15.90;100.00;97185.09;5054194;28;20025;-64
2022/07/06 01:33:54;;;;;;;9.68;2.42;;;;;;;15.93;100.00;97176.03;5055015;28;20025;-65
2022/07/06 01:36:20;;;;;;;4.97;2.30;;;;;;;15.96;100.00;97178.81;5052897;28;20036;-65
2022/07/06 01:38:54;;;;;;;9.32;2.58;;;;;;;15.94;100.00;97172.09;5055301;28;20037;-65
2022/07/06 01:41:20;;;;;;;3.25;2.05;;;;;;;15.85;100.00;97176.00;5055166;28;20051;-65
2022/07/06 01:43:46;;;;;;;6.28;2.60;;;;;;;15.82;100.00;97173.25;5056004;28;20480;-65
2022/07/06 01:46:12;;;;;;;5.63;2.40;;;;;;;15.83;100.00;97169.31;5055585;28;20500;-65
2022/07/06 01:48:38;;;;;;;4.72;2.33;;;;;;;15.82;100.00;97167.72;5056118;28;20029;-64
2022/07/06 01:51:03;;;;;;;5.32;2.20;;;;;;;15.72;100.00;97168.44;5055699;28;20037;-65
2022/07/06 01:53:29;;;;;;;3.00;1.90;;;;;;;15.68;100.00;97166.47;5054614;28;20029;-65
2022/07/06 01:55:54;;;;;;;9.95;2.78;;;;;;;15.66;100.00;97168.03;5049906;28;20045;-65
2022/07/06 01:58:20;;;;;;;6.45;2.20;;;;;;;15.62;100.00;97173.53;5053869;28;20079;-65
2022/07/06 02:00:45;;;;;;;9.48;3.03;;;;;;;15.54;100.00;97182.97;5044477;28;20387;-65
2022/07/06 02:03:11;;;;;;;7.68;2.63;;;;;;;15.52;100.00;97179.00;5033328;28;20448;-67
2022/07/06 02:05:36;;;;;;;6.18;2.35;;;;;;;15.47;100.00;97189.25;5037870;28;20072;-67
2022/07/06 02:08:02;;;;;;;9.98;2.67;;;;;;;15.48;100.00;97190.84;5039047;28;20056;-67
2022/07/06 02:10:27;;;;;;;6.80;2.40;;;;;;;15.52;100.00;97179.81;5050505;28;20094;-66
2022/07/06 02:12:52;;;;;;;8.25;2.42;;;;;;;15.03;100.00;97181.88;5046685;28;20030;-66
2022/07/06 02:15:18;;;;;;;5.70;2.75;;;;;;;14.91;100.00;97174.72;5042060;28;20040;-65
2022/07/06 02:17:43;;;;;;;5.80;2.70;;;;;;;14.78;100.00;97164.38;5044116;28;20079;-65
2022/07/06 02:20:09;;;;;;;13.38;3.35;;;;;;;14.47;100.00;97170.03;5049714;28;20036;-65
2022/07/06 02:22:35;;;;;;;9.43;3.65;;;;;;;14.03;100.00;97168.06;5052199;28;20025;-65
2022/07/06 02:25:01;;;;;;;6.32;3.22;;;;;;;13.82;100.00;97167.81;5039691;28;20030;-65
2022/07/06 02:27:26;;;;;;;13.07;3.42;;;;;;;13.94;100.00;97175.84;5043848;28;20036;-68
2022/07/06 02:29:51;;;;;;;7.32;3.50;;;;;;;13.98;100.00;97173.91;5040754;28;20086;-67
2022/07/06 02:32:17;;;;;;;4.88;2.70;;;;;;;14.08;100.00;97175.16;5039814;28;20040;-67
2022/07/06 02:34:43;;;;;;;8.10;3.88;;;;;;;14.03;100.00;97168.06;5041399;28;20033;-67
2022/07/06 02:37:08;;;;;;;5.63;2.78;;;;;;;13.94;100.00;97171.09;5037554;23;20069;-65
2022/07/06 02:39:34;;;;;;;11.70;4.22;;;;;;;13.96;100.00;97171.53;5030637;28;20072;-65
2022/07/06 02:41:59;;;;;;;7.75;2.78;;;;;;;13.92;100.00;97167.94;5016790;28;20030;-64
2022/07/06 02:44:24;;;;;;;9.70;3.05;;;;;;;13.93;100.00;97172.25;5021691;28;20038;-64
2022/07/06 02:46:50;;;;;;;10.18;3.17;;;;;;;13.94;100.00;97181.34;5032770;28;20037;-64
2022/07/06 02:49:15;;;;;;;6.55;3.10;;;;;;;14.10;100.00;97181.91;5024125;28;20061;-64
2022/07/06 02:51:41;;;;;;;8.07;3.20;;;;;;;14.22;100.00;97178.06;5012285;28;20402;-65
2022/07/06 02:54:06;;;;;;;5.93;2.70;;;;;;;14.14;100.00;97179.97;5021089;28;20108;-65
2022/07/06 02:56:32;;;;;;;4.13;3.03;;;;;;;14.23;100.00;97184.38;5011808;28;20026;-64
2022/07/06 02:58:57;;;;;;;6.82;2.50;;;;;;;14.08;100.00;97181.50;5015472;28;20047;-64
2022/07/06 03:01:22;;;;;;;7.57;2.90;;;;;;;13.91;100.00;97193.88;5022252;28;20549;-65
2022/07/06 03:03:48;;;;;;;12.07;3.05;;;;;;;13.81;100.00;97194.56;5015156;28;20038;-64
2022/07/06 03:06:13;;;;;;;8.15;3.17;;;;;;;13.82;100.00;97198.13;5019931;28;20086;-65
2022/07/06 03:08:38;;;;;;;6.03;3.10;;;;;;;13.80;100.00;97194.94;5024991;28;20045;-64
2022/07/06 03:11:04;;;;;;;7.43;3.42;;;;;;;13.93;100.00;97193.50;5031555;28;20053;-63
2022/07/06 03:13:30;;;;;;;8.80;3.38;;;;;;;14.02;100.00;97199.50;5031627;28;20474;-64
2022/07/06 03:15:55;;;;;;;7.30;2.95;;;;;;;14.00;100.00;97193.59;5031274;28;20040;-65
2022/07/06 03:18:21;;;;;;;5.68;3.20;;;;;;;14.00;100.00;97198.31;5030378;28;20390;-64
2022/07/06 03:20:46;;;;;;;8.10;3.30;;;;;;;13.77;100.00;97196.47;5034938;28;20036;-65
2022/07/06 03:23:11;;;;;;;7.72;3.38;;;;;;;13.55;100.00;97193.47;5019814;28;20493;-65
2022/07/06 03:25:37;;;;;;;5.00;2.92;;;;;;;13.56;100.00;97203.31;5029504;28;20033;-63
2022/07/06 03:28:03;;;;;;;8.70;2.90;;;;;;;13.66;100.00;97201.06;5016009;28;20333;-63
2022/07/06 03:30:29;;;;;;;6.05;3.13;;;;;;;13.88;100.00;97196.59;5011701;28;20483;-63
2022/07/06 03:32:54;;;;;;;3.72;3.08;;;;;;;13.95;100.00;97210.44;5011547;28;20038;-62
2022/07/06 03:35:20;;;;;;;7.30;2.90;;;;;;;13.93;100.00;97208.06;5011301;28;20531;-63
2022/07/06 03:37:45;;;;;;;6.85;2.97;;;;;;;13.92;100.00;97208.47;5027314;28;20025;-62
2022/07/06 03:40:11;;;;;;;7.07;3.58;;;;;;;13.60;100.00;97203.34;5023125;28;20038;-63
2022/07/06 03:42:37;;;;;;;6.88;3.58;;;;;;;13.63;100.00;97208.13;5014251;28;20676;-63
2022/07/06 03:45:06;;;;;;;9.60;3.55;;;;;;;13.58;100.00;97206.47;5016070;28;20030;-61
2022/07/06 03:47:31;;;;;;;6.97;3.00;;;;;;;13.78;100.00;97211.84;5030064;28;20505;-63
2022/07/06 03:49:56;;;;;;;13.00;3.60;;;;;;;13.36;100.00;97215.59;5031497;28;20112;-64
2022/07/06 03:52:22;;;;;;;11.50;5.07;;;;;;;12.86;100.00;97220.38;5031471;28;20493;-63
2022/07/06 03:54:47;;;;;;;15.27;5.05;;;;;;;12.57;100.00;97212.44;5018010;28;20116;-63
2022/07/06 03:57:13;;;;;;;9.95;4.60;;;;;;;12.52;100.00;97209.22;5026798;28;20052;-62
2022/07/06 03:59:39;;;;;;;17.20;5.72;;;;;;;12.42;100.00;97210.59;5022847;28;20116;-63
2022/07/06 04:02:05;;;;;;;19.65;8.10;;;;;;;12.43;100.00;97213.00;5015429;28;20686;-63
2022/07/06 04:04:31;;;;;;;12.27;7.00;;;;;;;12.48;100.00;97214.66;5029780;28;20117;-62
2022/07/06 04:06:56;;;;;;;13.23;6.15;;;;;;;12.59;100.00;97212.88;5023813;28;20040;-64
2022/07/06 04:09:21;;;;;;;12.05;5.80;;;;;;;12.70;100.00;97217.75;5028641;28;20482;-63
2022/07/06 04:11:47;;;;;;;8.98;5.57;;;;;;;12.87;100.00;97210.94;5028480;28;20512;-63
2022/07/06 04:14:12;;;;;;;8.18;4.82;;;;;;;12.90;100.00;97223.97;5019461;28;20080;-64
2022/07/06 04:16:38;;;;;;;7.38;4.43;;;;;;;12.84;100.00;97223.50;5018516;28;20040;-64
2022/07/06 04:19:03;;;;;;;6.57;4.28;;;;;;;12.87;100.00;97228.22;5015639;28;20042;-64
2022/07/06 04:21:29;;;;;;;4.63;3.95;;;;;;;13.04;100.00;97224.19;5014992;28;20076;-64
2022/07/06 04:23:54;;;;;;;9.55;3.65;;;;;;;13.45;100.00;97229.09;5017514;28;20465;-64
2022/07/06 04:26:20;;;;;;;8.02;3.80;;;;;;;13.98;100.00;97220.72;5011031;28;20486;-65
2022/07/06 04:28:45;;;;;;;6.60;2.78;;;;;;;14.46;100.00;97217.28;5018831;28;20034;-65
2022/07/06 04:31:14;;;;;;;3.65;2.67;;;;;;;14.78;100.00;97222.28;5018688;28;20044;-65
2022/07/06 04:33:40;;;;;;;7.95;2.83;;;;;;;14.86;100.00;97218.44;5023032;28;20037;-66
2022/07/06 04:36:06;;;;;;;3.72;2.40;;;;;;;15.32;100.00;97214.41;5029476;28;20037;-64
2022/07/06 04:38:31;;;;;;;5.85;2.88;;;;;;;15.68;100.00;97221.69;5019974;28;20107;-64
2022/07/06 04:40:56;;;;;;;6.05;2.58;;;;;;;15.96;100.00;97223.00;5015059;28;20034;-64
2022/07/06 04:43:22;;;;;;;3.70;2.03;;;;;;;16.30;100.00;97225.47;5025093;28;20029;-64
2022/07/06 04:45:47;;;;;;;6.28;2.13;;;;;;;16.53;100.00;97230.66;5014332;28;20578;-64
2022/07/06 04:48:12;;;;;;;6.25;2.40;;;;;;;16.46;100.00;97227.06;5014557;28;20030;-64
2022/07/06 04:50:38;;;;;;;3.35;2.03;;;;;;;16.62;100.00;97219.22;5014413;28;20033;-64
2022/07/06 04:53:03;;;;;;;2.90;2.10;;;;;;;17.03;100.00;97218.03;5023915;28;20099;-64
2022/07/06 04:55:29;;;;;;;4.75;2.08;;;;;;;18.28;100.00;97220.44;5030450;28;20402;-64
2022/07/06 04:57:55;;;;;;;4.20;1.90;;;;;;;20.14;97.15;97219.13;5021223;28;20111;-64
2022/07/06 05:00:21;;;;;;;5.40;2.25;;;;;;;21.70;79.62;97222.59;5045169;28;20401;-64
2022/07/06 05:02:47;;;;;;;6.10;2.28;;;;;;;23.02;72.99;97223.69;5028731;28;20021;-65
2022/07/06 05:05:12;;;;;;;4.35;1.40;;;;;;;24.29;67.32;97229.50;5045526;28;20087;-64
2022/07/06 05:07:39;;;;;;;4.55;1.20;;;;;;;25.36;62.33;97222.53;5027402;28;20034;-64
2022/07/06 05:10:14;;;;;;;3.25;1.38;;;;;;;25.79;54.70;97235.06;5039225;28;20043;-64
2022/07/06 05:12:39;;;;;;;5.90;1.58;;;;;;;26.83;51.90;97234.00;5029860;28;20026;-65
2022/07/06 05:15:05;;;;;;;2.47;1.20;;;;;;;27.56;49.19;97241.03;5022590;28;20607;-65
2022/07/06 05:17:31;;;;;;;4.72;1.10;;;;;;;27.82;46.93;97246.34;5013672;28;20057;-64
2022/07/06 05:19:57;;;;;;;3.95;1.15;;;;;;;27.96;46.54;97253.41;5014778;28;20069;-65
2022/07/06 05:22:22;;;;;;;6.80;1.23;;;;;;;28.65;44.40;97249.06;5023437;28;20125;-64
2022/07/06 05:24:47;;;;;;;2.22;1.30;;;;;;;28.88;42.44;97253.22;5022427;28;20037;-64
2022/07/06 05:27:13;;;;;;;4.43;1.60;;;;;;;28.77;42.72;97250.91;5021461;28;20057;-65
2022/07/06 05:29:38;;;;;;;5.38;1.40;;;;;;;29.17;41.87;97254.63;5012495;28;20478;-65
2022/07/06 05:32:04;;;;;;;5.43;1.10;;;;;;;29.28;42.37;97252.06;5020230;28;20050;-65
2022/07/06 05:34:29;;;;;;;7.43;1.58;;;;;;;29.29;41.99;97261.31;5023236;28;20482;-65
2022/07/06 05:36:55;;;;;;;3.08;1.20;;;;;;;27.89;44.16;97262.13;5024976;28;20030;-65
2022/07/06 05:39:22;;;;;;;4.55;1.10;;;;;;;28.69;42.00;97268.63;5021766;28;20386;-66
2022/07/06 05:41:48;;;;;;;2.03;1.15;;;;;;;24.86;50.42;97264.19;5013786;28;20122;-66
2022/07/06 05:44:13;;;;;;;4.05;0.95;;;;;;;25.75;48.82;97265.28;5014005;28;20112;-66
2022/07/06 05:46:39;;;;;;;4.32;1.40;;;;;;;24.14;50.81;97259.94;5014618;28;20037;-66
2022/07/06 05:51:49;;;;;;;6.95;2.17;;;;;;;20.76;64.05;97279.09;5019029;28;20033;-63
2022/07/06 05:54:15;;;;;;;4.72;1.60;;;;;;;20.79;62.79;97271.88;5029856;28;20103;-63
2022/07/06 05:56:40;;;;;;;6.43;2.25;;;;;;;20.49;69.64;97272.69;5032478;28;20040;-64
2022/07/06 05:59:06;;;;;;;7.53;1.50;;;;;;;21.34;65.11;97272.63;5032798;28;20104;-63
2022/07/06 06:01:31;;;;;;;2.80;1.48;;;;;;;21.04;62.85;97271.50;5029449;28;20032;-63
2022/07/06 06:03:57;;;;;;;6.22;1.63;;;;;;;20.92;65.31;97272.91;5025374;28;20029;-65
2022/07/06 06:06:22;;;;;;;4.15;1.70;;;;;;;20.90;63.96;97278.06;5021994;28;20189;-65
2022/07/06 06:08:48;;;;;;;6.53;1.80;;;;;;;23.62;55.32;97276.50;5025486;28;20064;-65
2022/07/06 06:11:13;;;;;;;3.42;1.38;;;;;;;26.44;47.44;97275.59;5032844;28;20025;-65
2022/07/06 06:13:38;;;;;;;5.90;1.30;;;;;;;28.06;42.65;97280.31;5028605;28;20034;-67
2022/07/06 06:16:04;;;;;;;2.60;1.33;;;;;;;26.15;44.85;97281.50;5020413;28;20030;-67
2022/07/06 06:18:29;;;;;;;2.88;1.30;;;;;;;28.44;41.01;97284.63;5018162;28;20065;-68
2022/07/06 06:20:55;;;;;;;4.07;1.75;;;;;;;28.24;41.00;97279.50;5024006;28;20041;-67
2022/07/06 06:23:20;;;;;;;3.35;1.23;;;;;;;28.86;38.59;97291.56;5023251;28;20037;-68
2022/07/06 06:25:45;;;;;;;2.33;1.25;;;;;;;29.40;35.52;97286.94;5022727;28;20546;-67
2022/07/06 06:28:11;;;;;;;3.72;1.10;;;;;;;29.51;34.55;97283.59;5022257;28;20509;-68
2022/07/06 06:30:38;;;;;;;3.08;1.50;;;;;;;25.21;43.62;97286.69;5032424;28;20397;-67
2022/07/06 06:33:11;;;;;;;4.65;1.63;;;;;;;23.92;47.67;97282.13;5024408;28;20109;-66
2022/07/06 06:35:38;;;;;;;3.53;1.58;;;;;;;22.21;50.75;97280.16;5030986;28;20112;-66
2022/07/06 06:38:03;;;;;;;2.88;1.40;;;;;;;22.59;51.13;97279.78;5023394;28;20550;-66
2022/07/06 06:40:29;;;;;;;5.40;1.65;;;;;;;22.08;51.34;97274.44;5023391;28;20116;-66
2022/07/06 06:42:54;;;;;;;5.90;1.88;;;;;;;22.68;50.86;97277.94;5026382;28;20072;-66
2022/07/06 06:45:20;;;;;;;4.47;1.65;;;;;;;22.96;50.46;97270.16;5018553;28;20386;-67
2022/07/06 06:47:45;;;;;;;6.50;1.98;;;;;;;22.96;50.09;97275.72;5021687;28;20433;-66
2022/07/06 06:50:11;;;;;;;5.40;1.60;;;;;;;23.01;51.63;97274.41;5039072;28;20034;-67
2022/07/06 06:52:36;;;;;;;3.30;1.67;;;;;;;21.88;53.97;97274.44;5039155;28;20029;-66
2022/07/06 06:55:02;;;;;;;9.93;4.90;;;;;;;21.74;57.25;97273.50;5020829;28;20041;-66
2022/07/06 06:57:28;;;;;;;2.80;1.70;;;;;;;22.97;52.68;97274.50;5021199;28;20112;-67
2022/07/06 06:59:54;;;;;;;4.13;1.58;;;;;;;23.26;51.23;97280.22;5012080;28;20032;-66
2022/07/06 07:02:19;;;;;;;7.45;1.70;;;;;;;22.62;51.76;97276.91;5019934;28;20034;-66
2022/07/06 07:04:45;;;;;;;2.75;1.77;;;;;;;21.83;54.33;97277.72;5032663;28;20539;-66
2022/07/06 07:07:10;;;;;;;3.17;1.75;;;;;;;21.37;58.08;97280.09;5043822;28;20136;-63
2022/07/06 07:09:36;;;;;;;10.57;2.05;;;;;;;21.65;60.67;97272.50;5029513;28;20042;-64
2022/07/06 07:12:01;;;;;;;3.08;1.90;;;;;;;21.46;57.51;97280.38;5016659;28;20099;-66
2022/07/06 07:14:27;;;;;;;3.60;1.58;;;;;;;22.77;55.42;97271.00;5015360;28;20067;-63
2022/07/06 07:16:53;;;;;;;3.53;1.77;;;;;;;21.71;57.10;97271.53;5012410;28;20050;-64
2022/07/06 07:19:19;;;;;;;4.93;2.03;;;;;;;21.67;59.02;97267.28;5012949;28;20695;-64
2022/07/06 07:21:44;;;;;;;8.57;2.20;;;;;;;21.93;58.47;97271.13;5003656;28;20038;-66
2022/07/06 07:24:11;;;;;;;4.22;1.73;;;;;;;24.86;50.89;97266.97;4995104;28;20042;-64
2022/07/06 07:26:37;;;;;;;7.22;1.65;;;;;;;27.00;44.33;97268.22;5009550;28;20033;-64
2022/07/06 07:29:03;;;;;;;8.05;1.80;;;;;;;27.40;42.84;97277.88;5015746;28;20042;-65
2022/07/06 07:31:29;;;;;;;3.28;1.35;;;;;;;25.35;47.27;97268.63;5014129;28;20048;-64
2022/07/06 07:33:56;;;;;;;8.32;1.85;;;;;;;23.05;54.28;97278.72;5016616;28;20045;-64
2022/07/06 07:36:25;;;;;;;6.00;2.10;;;;;;;22.60;53.58;97268.19;5013688;28;20961;-64
2022/07/06 07:38:51;;;;;;;4.38;1.58;;;;;;;22.46;54.83;97271.28;5009168;28;20511;-64
2022/07/06 07:41:16;;;;;;;2.97;1.75;;;;;;;23.18;52.54;97267.63;5012676;28;20128;-64
2022/07/06 07:43:42;;;;;;;5.78;1.70;;;;;;;21.51;56.65;97263.16;5020697;28;20132;-64
2022/07/06 07:46:08;;;;;;;8.88;4.55;;;;;;;23.97;51.59;97260.00;5010332;28;20042;-64
2022/07/06 07:48:34;;;;;;;10.10;2.58;;;;;;;24.35;50.74;97253.72;4997511;28;20046;-64
2022/07/06 07:50:59;;;;;;;3.17;1.45;;;;;;;23.63;51.29;97260.50;5007677;28;20402;-63
2022/07/06 07:53:25;;;;;;;4.68;1.67;;;;;;;22.91;53.65;97263.06;5005837;28;20150;-63
2022/07/06 07:55:50;;;;;;;6.43;1.83;;;;;;;23.06;52.16;97262.75;5005617;28;20052;-63
2022/07/06 07:58:16;;;;;;;4.45;1.90;;;;;;;23.00;53.19;97256.88;4996071;28;20184;-64
2022/07/06 08:00:41;;;;;;;3.20;2.10;;;;;;;22.31;52.81;97256.88;5001006;28;20089;-63
2022/07/06 08:03:06;;;;;;;6.90;2.45;;;;;;;21.95;52.13;97255.56;4996287;28;20041;-63
2022/07/06 08:05:32;;;;;;;4.55;1.70;;;;;;;21.93;51.25;97248.81;5002443;28;20049;-65
2022/07/06 08:07:57;;;;;;;3.78;1.50;;;;;;;22.40;50.06;97262.66;5018335;28;20397;-65
2022/07/06 08:10:23;;;;;;;3.75;1.40;;;;;;;22.81;48.06;97254.94;5016048;28;20048;-65
2022/07/06 08:12:48;;;;;;;4.70;1.70;;;;;;;22.07;51.58;97258.91;5020676;28;20041;-65
2022/07/06 08:15:13;;;;;;;3.00;1.80;;;;;;;22.50;53.32;97264.38;5016270;28;20050;-65
2022/07/06 08:17:39;;;;;;;4.53;1.83;;;;;;;22.87;52.07;97264.38;5023961;28;20269;-63
2022/07/06 08:20:06;;;;;;;6.75;2.20;;;;;;;23.89;47.55;97257.84;5020366;28;20041;-64
2022/07/06 08:22:31;;;;;;;4.75;1.80;;;;;;;24.21;46.71;97251.31;5024198;28;20071;-65
2022/07/06 08:24:57;;;;;;;4.65;2.03;;;;;;;24.22;47.50;97255.72;5024862;28;20037;-63
2022/07/06 08:27:23;;;;;;;6.05;2.08;;;;;;;25.14;44.32;97258.91;5015331;28;20060;-63
2022/07/06 08:29:49;;;;;;;5.88;2.03;;;;;;;23.31;45.76;97256.53;5023014;28;20044;-68
2022/07/06 08:32:14;;;;;;;3.70;1.70;;;;;;;22.83;49.15;97258.88;5016714;28;20529;-64
2022/07/06 08:34:40;;;;;;;3.22;1.48;;;;;;;23.29;47.25;97259.75;5012717;28;20073;-63
2022/07/06 08:37:05;;;;;;;5.88;2.10;;;;;;;24.23;46.54;97258.03;5008000;28;20041;-66
2022/07/06 08:39:31;;;;;;;4.55;1.88;;;;;;;24.46;44.24;97258.22;5038028;23;20080;-63
2022/07/06 08:41:58;;;;;;;8.40;1.90;;;;;;;24.16;46.22;97255.44;5044471;28;20048;-62
2022/07/06 08:44:25;;;;;;;2.70;1.75;;;;;;;25.58;42.40;97261.84;5041507;28;20487;-60
2022/07/06 08:46:54;;;;;;;4.20;1.90;;;;;;;24.01;46.33;97257.09;5044927;28;20041;-60
2022/07/06 08:49:19;;;;;;;3.03;1.88;;;;;;;25.97;41.94;97261.72;5039648;28;20037;-61
2022/07/06 08:51:46;;;;;;;3.75;1.67;;;;;;;26.95;40.10;97260.41;5059927;28;20041;-62
2022/07/06 08:54:12;;;;;;;3.47;1.75;;;;;;;27.79;37.79;97269.81;5038127;28;20073;-63
2022/07/06 08:56:39;;;;;;;4.75;1.77;;;;;;;28.01;37.30;97264.81;5044657;28;20033;-63
2022/07/06 08:59:04;;;;;;;7.43;1.60;;;;;;;27.78;37.96;97273.88;5040041;28;20087;-64
2022/07/06 09:01:31;;;;;;;3.00;1.55;;;;;;;27.82;38.22;97268.84;5046517;28;20064;-64
2022/07/06 09:03:57;;;;;;;6.13;1.58;;;;;;;28.50;36.98;97268.63;5043712;28;20045;-65
2022/07/06 09:06:27;;;;;;;5.78;1.88;;;;;;;28.87;36.62;97267.78;5027230;28;20406;-62
2022/07/06 09:08:55;;;;;;;;;;;;;;;28.85;36.68;97265.44;5025252;28;20055;-62
2022/07/06 09:11:22;;;;;;;4.63;1.52;;;;;;;29.62;35.49;97271.75;5018172;28;19920;-64
2022/07/06 09:13:48;;;;;;;3.20;1.40;;;;;;;29.71;34.62;97272.47;5024144;28;20643;-62
2022/07/06 09:16:16;;;;;;;5.20;1.50;;;;;;;29.59;36.00;97272.72;5019049;28;20081;-65
2022/07/06 09:18:45;;;;;;;3.38;1.15;;;;;;;29.70;35.49;97270.13;5041485;28;20041;-64
2022/07/06 09:21:11;;;;;;;3.70;1.40;;;;;;;30.14;34.48;97275.13;5018991;28;20099;-64
2022/07/06 09:23:38;;;;;;;3.97;1.50;;;;;;;29.16;35.25;97275.66;5024492;28;20045;-64
2022/07/06 09:26:05;;;;;;;2.85;1.42;;;;;;;28.90;35.98;97276.06;5019793;28;20041;-67
2022/07/06 09:28:44;;;;;;;4.57;1.67;;;;;;;29.26;35.20;97280.00;5024793;28;20084;-65
2022/07/06 09:31:10;;;;;;;5.40;1.58;;;;;;;29.40;35.59;97274.88;5019019;28;20498;-62
2022/07/06 09:33:36;;;;;;;8.68;1.40;;;;;;;30.06;34.63;97288.84;5032974;28;20122;-63
2022/07/06 09:36:02;;;;;;;3.67;1.55;;;;;;;29.33;36.24;97278.84;5028620;28;20132;-65
2022/07/06 09:38:28;;;;;;;9.10;1.95;;;;;;;29.78;34.45;97274.16;5040362;28;20443;-62
2022/07/06 09:40:54;;;;;;;5.10;1.50;;;;;;;28.84;36.07;97280.78;5043653;28;20195;-64
2022/07/06 09:43:22;;;;;;;3.60;1.48;;;;;;;29.77;33.85;97278.25;5032002;28;20371;-62
2022/07/06 09:45:57;;;;;;;4.72;1.70;;;;;;;30.15;34.75;97276.69;5022934;28;20501;-65
2022/07/06 09:48:23;;;;;;;3.60;1.40;;;;;;;29.87;35.70;97278.97;5015423;28;20541;-63
2022/07/06 09:50:54;;;;;;;3.22;1.45;;;;;;;29.32;35.86;97280.88;5023092;28;20064;-62
2022/07/06 09:53:22;;;;;;;3.65;1.65;;;;;;;29.48;36.77;97276.09;5019444;28;20046;-65
2022/07/06 09:55:48;;;;;;;4.93;1.48;;;;;;;28.67;38.17;97277.56;5023892;28;20037;-65
2022/07/06 09:58:15;;;;;;;2.60;1.30;;;;;;;28.99;37.75;97278.03;5019327;28;20596;-63
2022/07/06 10:00:41;;;;;;;2.35;1.40;;;;;;;29.23;37.24;97278.13;5022465;28;20115;-64
2022/07/06 10:03:07;;;;;;;4.82;1.80;;;;;;;28.83;38.51;97289.69;5017281;28;20041;-65
2022/07/06 10:05:37;;;;;;;6.68;1.75;;;;;;;28.85;40.63;97279.53;5014442;28;20041;-65
2022/07/06 10:08:05;;;;;;;10.05;1.70;;;;;;;28.53;43.37;97273.38;5022379;28;20076;-65
2022/07/06 10:10:32;;;;;;;2.85;1.80;;;;;;;28.03;43.35;97270.75;5027032;28;20042;-65
2022/07/06 10:12:59;;;;;;;3.30;1.60;;;;;;;27.71;45.25;97277.00;5031113;28;20041;-66
2022/07/06 10:15:26;;;;;;;3.85;1.75;;;;;;;27.32;45.83;97279.44;5043918;28;20037;-65
2022/07/06 10:17:52;;;;;;;5.85;2.05;;;;;;;26.74;47.88;97273.28;5032263;28;20404;-63
2022/07/06 10:20:21;;;;;;;4.10;2.15;;;;;;;26.75;48.27;97271.25;5028323;28;20045;-63
2022/07/06 10:22:50;;;;;;;5.05;1.67;;;;;;;26.25;47.92;97273.91;5035003;28;20040;-63
2022/07/06 10:25:16;;;;;;;;;;;;;;;25.93;49.70;97270.28;5030803;28;20386;-64
2022/07/06 10:27:44;;;;;;;4.20;1.90;;;;;;;25.82;48.17;97267.81;5031021;28;19921;-63
2022/07/06 10:30:10;;;;;;;3.90;2.15;;;;;;;25.96;48.55;97265.75;5027355;28;20043;-62
2022/07/06 10:32:38;;;;;;;5.85;2.22;;;;;;;25.92;48.74;97268.66;5033084;28;20461;-61
2022/07/06 10:35:05;;;;;;;4.80;1.83;;;;;;;25.65;48.71;97267.19;5029839;28;20099;-65
2022/07/06 10:37:32;;;;;;;6.78;2.30;;;;;;;25.65;48.64;97266.44;5030267;28;20041;-64
2022/07/06 10:42:44;;;;;;;4.07;2.03;;;;;;;25.49;49.90;97261.75;5036460;28;20042;-65
2022/07/06 10:45:21;;;;;;;7.40;1.75;;;;;;;25.34;50.70;97267.06;5031900;28;20044;-65
2022/07/06 10:47:47;;;;;;;9.25;3.30;;;;;;;25.37;49.07;97258.53;5032533;28;20454;-64
2022/07/06 10:50:13;;;;;;;5.25;2.17;;;;;;;25.35;51.30;97258.22;5026441;28;20123;-65
2022/07/06 10:52:53;;;;;;;6.88;2.10;;;;;;;25.66;49.71;97262.38;5048215;28;20049;-63
2022/07/06 10:55:32;;;;;;;3.17;1.63;;;;;;;25.96;48.48;97251.72;5029554;28;20045;-64
2022/07/06 10:57:58;;;;;;;5.13;1.67;;;;;;;26.27;48.91;97244.16;5036215;28;20048;-65
2022/07/06 11:00:23;;;;;;;5.20;2.13;;;;;;;26.89;46.35;97254.59;5027411;28;20504;-66
2022/07/06 11:02:49;;;;;;;3.83;1.70;;;;;;;27.17;47.21;97249.09;5047800;28;20045;-64
2022/07/06 11:05:40;;;;;;;7.53;1.77;;;;;;;27.13;45.52;97254.06;5023949;28;20047;-65
2022/07/06 11:08:10;;;;;;;2.25;1.15;;;;;;;26.17;41.83;97250.94;5024360;28;20705;-63
2022/07/06 11:10:49;;;;;;;5.38;1.42;;;;;;;27.16;41.12;97244.69;5029836;28;20049;-65
2022/07/06 11:13:29;;;;;;;4.88;1.50;;;;;;;27.64;40.61;97238.69;5026412;28;20102;-65
2022/07/06 11:16:04;;;;;;;3.85;1.35;;;;;;;26.95;40.89;97240.72;5030910;28;20061;-66
2022/07/06 11:18:40;;;;;;;2.22;1.13;;;;;;;27.38;39.96;97241.78;5043113;28;20045;-66
2022/07/06 11:21:23;;;;;;;2.63;1.20;;;;;;;28.01;37.57;97244.34;5027052;28;20041;-63
2022/07/06 11:23:50;;;;;;;5.20;1.00;;;;;;;27.86;36.76;97241.34;5030897;28;20042;-64
2022/07/06 11:26:17;;;;;;;5.35;0.93;;;;;;;28.02;37.00;97229.78;5024756;28;20037;-65
2022/07/06 11:28:47;;;;;;;3.88;1.02;;;;;;;28.02;36.95;97234.66;5031510;28;20187;-64
2022/07/06 11:31:12;;;;;;;2.45;1.00;;;;;;;27.72;37.48;97230.72;5025567;28;20041;-64
2022/07/06 11:33:38;;;;;;;4.20;1.30;;;;;;;27.81;36.56;97225.09;5033416;28;20044;-64